sensor_id;sensor_type;location;lat;lon;timestamp;P1;durP1;ratioP1;P2;durP2;ratioP2
49015;SDS011;34830;44.064;12.566;2022-10-19T00:00:19;23.48;;;16.83;;
49015;SDS011;34830;44.064;12.566;2022-10-19T00:02:45;27.38;;;16.40;;
49015;SDS011;34830;44.064;12.566;2022-10-19T00:05:11;22.45;;;14.40;;
49015;SDS011;34830;44.064;12.566;2022-10-19T00:07:37;22.73;;;15.00;;
49015;SDS011;34830;44.064;12.566;2022-10-19T00:10:03;22.25;;;14.38;;
49015;SDS011;34830;44.064;12.566;2022-10-19T00:12:30;22.90;;;13.93;;
49015;SDS011;34830;44.064;12.566;2022-10-19T00:14:56;19.90;;;14.27;;
49015;SDS011;34830;44.064;12.566;2022-10-19T00:17:22;23.65;;;13.93;;
49015;SDS011;34830;44.064;12.566;2022-10-19T00:19:48;21.35;;;14.18;;
49015;SDS011;34830;44.064;12.566;2022-10-19T00:22:14;24.77;;;13.75;;
49015;SDS011;34830;44.064;12.566;2022-10-19T00:24:40;22.63;;;13.73;;
49015;SDS011;34830;44.064;12.566;2022-10-19T00:27:07;22.23;;;15.05;;
49015;SDS011;34830;44.064;12.566;2022-10-19T00:29:33;19.13;;;13.07;;
49015;SDS011;34830;44.064;12.566;2022-10-19T00:31:59;21.85;;;13.68;;
49015;SDS011;34830;44.064;12.566;2022-10-19T00:34:25;21.85;;;13.65;;
49015;SDS011;34830;44.064;12.566;2022-10-19T00:36:51;16.80;;;12.60;;
49015;SDS011;34830;44.064;12.566;2022-10-19T00:39:17;18.35;;;12.13;;
49015;SDS011;34830;44.064;12.566;2022-10-19T00:41:44;17.27;;;12.38;;
49015;SDS011;34830;44.064;12.566;2022-10-19T00:46:38;15.80;;;11.05;;
49015;SDS011;34830;44.064;12.566;2022-10-19T00:49:13;18.80;;;12.73;;
49015;SDS011;34830;44.064;12.566;2022-10-19T00:51:43;21.95;;;11.82;;
49015;SDS011;34830;44.064;12.566;2022-10-19T00:54:10;19.67;;;13.35;;
49015;SDS011;34830;44.064;12.566;2022-10-19T00:56:37;17.95;;;12.63;;
49015;SDS011;34830;44.064;12.566;2022-10-19T00:59:05;17.15;;;12.30;;
49015;SDS011;34830;44.064;12.566;2022-10-19T01:01:31;16.65;;;12.23;;
49015;SDS011;34830;44.064;12.566;2022-10-19T01:03:58;19.15;;;13.00;;
49015;SDS011;34830;44.064;12.566;2022-10-19T01:06:25;20.10;;;12.57;;
49015;SDS011;34830;44.064;12.566;2022-10-19T01:08:51;19.30;;;12.30;;
49015;SDS011;34830;44.064;12.566;2022-10-19T01:11:27;22.73;;;12.50;;
49015;SDS011;34830;44.064;12.566;2022-10-19T01:30:58;17.08;;;11.73;;
49015;SDS011;34830;44.064;12.566;2022-10-19T01:36:13;20.52;;;12.93;;
49015;SDS011;34830;44.064;12.566;2022-10-19T01:41:31;19.33;;;13.38;;
49015;SDS011;34830;44.064;12.566;2022-10-19T01:44:21;20.23;;;14.07;;
49015;SDS011;34830;44.064;12.566;2022-10-19T01:47:33;18.10;;;12.82;;
49015;SDS011;34830;44.064;12.566;2022-10-19T01:52:35;19.58;;;13.07;;
49015;SDS011;34830;44.064;12.566;2022-10-19T01:55:02;18.65;;;13.10;;
49015;SDS011;34830;44.064;12.566;2022-10-19T01:57:29;18.88;;;12.23;;
49015;SDS011;34830;44.064;12.566;2022-10-19T01:59:58;19.30;;;13.13;;
49015;SDS011;34830;44.064;12.566;2022-10-19T02:02:37;20.35;;;13.80;;
49015;SDS011;34830;44.064;12.566;2022-10-19T02:05:07;25.77;;;13.20;;
49015;SDS011;34830;44.064;12.566;2022-10-19T02:07:33;17.23;;;12.38;;
49015;SDS011;34830;44.064;12.566;2022-10-19T02:09:59;16.55;;;11.75;;
49015;SDS011;34830;44.064;12.566;2022-10-19T02:12:25;14.77;;;10.93;;
49015;SDS011;34830;44.064;12.566;2022-10-19T02:14:54;15.95;;;10.55;;
49015;SDS011;34830;44.064;12.566;2022-10-19T02:17:27;17.15;;;11.48;;
49015;SDS011;34830;44.064;12.566;2022-10-19T02:19:56;15.90;;;10.73;;
49015;SDS011;34830;44.064;12.566;2022-10-19T02:22:22;14.38;;;10.63;;
49015;SDS011;34830;44.064;12.566;2022-10-19T02:24:48;14.65;;;9.77;;
49015;SDS011;34830;44.064;12.566;2022-10-19T02:27:14;13.98;;;8.90;;
49015;SDS011;34830;44.064;12.566;2022-10-19T02:29:41;15.38;;;10.07;;
49015;SDS011;34830;44.064;12.566;2022-10-19T02:32:07;16.63;;;10.00;;
49015;SDS011;34830;44.064;12.566;2022-10-19T02:34:34;14.10;;;8.88;;
49015;SDS011;34830;44.064;12.566;2022-10-19T02:37:00;13.90;;;8.80;;
49015;SDS011;34830;44.064;12.566;2022-10-19T02:39:27;13.00;;;9.40;;
49015;SDS011;34830;44.064;12.566;2022-10-19T02:41:55;16.23;;;9.00;;
49015;SDS011;34830;44.064;12.566;2022-10-19T02:44:33;12.18;;;9.35;;
49015;SDS011;34830;44.064;12.566;2022-10-19T02:49:43;18.75;;;9.80;;
49015;SDS011;34830;44.064;12.566;2022-10-19T02:52:11;15.15;;;9.00;;
49015;SDS011;34830;44.064;12.566;2022-10-19T02:54:38;14.75;;;9.00;;
49015;SDS011;34830;44.064;12.566;2022-10-19T02:57:12;13.65;;;9.63;;
49015;SDS011;34830;44.064;12.566;2022-10-19T02:59:43;12.93;;;8.63;;
49015;SDS011;34830;44.064;12.566;2022-10-19T03:02:09;14.15;;;8.88;;
49015;SDS011;34830;44.064;12.566;2022-10-19T03:04:35;11.98;;;8.80;;
49015;SDS011;34830;44.064;12.566;2022-10-19T03:07:01;17.90;;;9.18;;
49015;SDS011;34830;44.064;12.566;2022-10-19T03:09:27;12.52;;;8.63;;
49015;SDS011;34830;44.064;12.566;2022-10-19T03:11:54;16.10;;;9.38;;
49015;SDS011;34830;44.064;12.566;2022-10-19T03:14:20;15.75;;;8.82;;
49015;SDS011;34830;44.064;12.566;2022-10-19T03:16:46;12.88;;;8.80;;
49015;SDS011;34830;44.064;12.566;2022-10-19T03:19:13;14.02;;;9.48;;
49015;SDS011;34830;44.064;12.566;2022-10-19T03:21:39;11.88;;;8.93;;
49015;SDS011;34830;44.064;12.566;2022-10-19T03:24:05;11.10;;;8.85;;
49015;SDS011;34830;44.064;12.566;2022-10-19T03:26:31;14.40;;;9.07;;
49015;SDS011;34830;44.064;12.566;2022-10-19T03:28:57;11.07;;;8.25;;
49015;SDS011;34830;44.064;12.566;2022-10-19T03:31:23;13.73;;;9.32;;
49015;SDS011;34830;44.064;12.566;2022-10-19T03:33:49;13.88;;;9.32;;
49015;SDS011;34830;44.064;12.566;2022-10-19T03:38:41;13.27;;;9.10;;
49015;SDS011;34830;44.064;12.566;2022-10-19T03:41:07;14.70;;;9.10;;
49015;SDS011;34830;44.064;12.566;2022-10-19T03:43:34;14.82;;;8.82;;
49015;SDS011;34830;44.064;12.566;2022-10-19T03:46:00;11.95;;;8.40;;
49015;SDS011;34830;44.064;12.566;2022-10-19T03:48:26;12.75;;;9.50;;
49015;SDS011;34830;44.064;12.566;2022-10-19T03:51:09;15.82;;;10.65;;
49015;SDS011;34830;44.064;12.566;2022-10-19T03:53:38;13.48;;;9.38;;
49015;SDS011;34830;44.064;12.566;2022-10-19T03:56:06;13.60;;;9.70;;
49015;SDS011;34830;44.064;12.566;2022-10-19T03:58:34;12.68;;;8.85;;
49015;SDS011;34830;44.064;12.566;2022-10-19T04:01:05;16.33;;;9.63;;
49015;SDS011;34830;44.064;12.566;2022-10-19T04:03:32;17.60;;;10.13;;
49015;SDS011;34830;44.064;12.566;2022-10-19T04:06:05;13.55;;;8.70;;
49015;SDS011;34830;44.064;12.566;2022-10-19T04:08:33;14.88;;;9.18;;
49015;SDS011;34830;44.064;12.566;2022-10-19T04:11:00;11.75;;;9.02;;
49015;SDS011;34830;44.064;12.566;2022-10-19T04:13:27;14.00;;;9.65;;
49015;SDS011;34830;44.064;12.566;2022-10-19T04:15:53;13.20;;;9.23;;
49015;SDS011;34830;44.064;12.566;2022-10-19T04:18:20;12.70;;;9.05;;
49015;SDS011;34830;44.064;12.566;2022-10-19T04:20:46;13.07;;;9.55;;
49015;SDS011;34830;44.064;12.566;2022-10-19T04:23:12;15.27;;;9.32;;
49015;SDS011;34830;44.064;12.566;2022-10-19T04:25:38;13.30;;;9.43;;
49015;SDS011;34830;44.064;12.566;2022-10-19T04:28:04;15.13;;;9.85;;
49015;SDS011;34830;44.064;12.566;2022-10-19T04:30:30;16.90;;;10.30;;
49015;SDS011;34830;44.064;12.566;2022-10-19T04:32:56;15.10;;;9.98;;
49015;SDS011;34830;44.064;12.566;2022-10-19T04:35:22;16.08;;;10.43;;
49015;SDS011;34830;44.064;12.566;2022-10-19T04:37:48;13.52;;;9.63;;
49015;SDS011;34830;44.064;12.566;2022-10-19T04:40:14;14.77;;;9.70;;
49015;SDS011;34830;44.064;12.566;2022-10-19T04:42:41;14.57;;;9.70;;
49015;SDS011;34830;44.064;12.566;2022-10-19T04:45:07;18.17;;;9.70;;
49015;SDS011;34830;44.064;12.566;2022-10-19T04:47:33;15.75;;;9.98;;
49015;SDS011;34830;44.064;12.566;2022-10-19T04:49:59;18.77;;;10.43;;
49015;SDS011;34830;44.064;12.566;2022-10-19T04:52:25;15.85;;;10.02;;
49015;SDS011;34830;44.064;12.566;2022-10-19T04:54:51;12.85;;;9.52;;
49015;SDS011;34830;44.064;12.566;2022-10-19T04:57:17;13.68;;;9.98;;
49015;SDS011;34830;44.064;12.566;2022-10-19T04:59:43;13.68;;;9.27;;
49015;SDS011;34830;44.064;12.566;2022-10-19T05:02:09;13.88;;;10.20;;
49015;SDS011;34830;44.064;12.566;2022-10-19T05:04:37;14.32;;;10.30;;
49015;SDS011;34830;44.064;12.566;2022-10-19T05:07:03;18.23;;;11.00;;
49015;SDS011;34830;44.064;12.566;2022-10-19T05:09:29;16.45;;;10.82;;
49015;SDS011;34830;44.064;12.566;2022-10-19T05:11:56;13.75;;;10.20;;
49015;SDS011;34830;44.064;12.566;2022-10-19T05:14:25;15.27;;;10.50;;
49015;SDS011;34830;44.064;12.566;2022-10-19T05:17:05;15.00;;;10.27;;
49015;SDS011;34830;44.064;12.566;2022-10-19T05:19:32;18.92;;;11.13;;
49015;SDS011;34830;44.064;12.566;2022-10-19T05:22:00;15.65;;;11.20;;
49015;SDS011;34830;44.064;12.566;2022-10-19T05:24:26;22.67;;;12.25;;
49015;SDS011;34830;44.064;12.566;2022-10-19T05:26:52;19.88;;;11.40;;
49015;SDS011;34830;44.064;12.566;2022-10-19T05:29:19;19.45;;;11.75;;
49015;SDS011;34830;44.064;12.566;2022-10-19T05:31:45;18.33;;;12.32;;
49015;SDS011;34830;44.064;12.566;2022-10-19T05:34:11;16.33;;;11.52;;
49015;SDS011;34830;44.064;12.566;2022-10-19T05:36:38;20.15;;;11.60;;
49015;SDS011;34830;44.064;12.566;2022-10-19T05:39:05;16.25;;;11.55;;
49015;SDS011;34830;44.064;12.566;2022-10-19T05:41:38;17.08;;;10.80;;
49015;SDS011;34830;44.064;12.566;2022-10-19T05:44:06;18.60;;;11.45;;
49015;SDS011;34830;44.064;12.566;2022-10-19T05:46:32;20.85;;;11.45;;
49015;SDS011;34830;44.064;12.566;2022-10-19T05:48:59;20.33;;;12.35;;
49015;SDS011;34830;44.064;12.566;2022-10-19T05:51:25;19.65;;;13.00;;
49015;SDS011;34830;44.064;12.566;2022-10-19T05:53:53;15.88;;;11.60;;
49015;SDS011;34830;44.064;12.566;2022-10-19T05:56:21;19.33;;;12.13;;
49015;SDS011;34830;44.064;12.566;2022-10-19T05:58:48;26.38;;;12.05;;
49015;SDS011;34830;44.064;12.566;2022-10-19T06:01:15;20.55;;;12.45;;
49015;SDS011;34830;44.064;12.566;2022-10-19T06:03:43;25.20;;;13.32;;
49015;SDS011;34830;44.064;12.566;2022-10-19T06:06:10;22.27;;;13.25;;
49015;SDS011;34830;44.064;12.566;2022-10-19T06:08:37;22.38;;;12.13;;
49015;SDS011;34830;44.064;12.566;2022-10-19T06:11:08;20.42;;;12.55;;
49015;SDS011;34830;44.064;12.566;2022-10-19T06:13:36;20.42;;;11.73;;
49015;SDS011;34830;44.064;12.566;2022-10-19T06:16:04;19.45;;;11.65;;
49015;SDS011;34830;44.064;12.566;2022-10-19T06:18:31;24.42;;;11.90;;
49015;SDS011;34830;44.064;12.566;2022-10-19T06:21:01;17.40;;;11.90;;
49015;SDS011;34830;44.064;12.566;2022-10-19T06:23:28;20.27;;;12.18;;
49015;SDS011;34830;44.064;12.566;2022-10-19T06:25:55;18.88;;;12.90;;
49015;SDS011;34830;44.064;12.566;2022-10-19T06:28:21;25.98;;;13.10;;
49015;SDS011;34830;44.064;12.566;2022-10-19T06:30:47;19.33;;;12.70;;
49015;SDS011;34830;44.064;12.566;2022-10-19T06:33:13;18.35;;;12.38;;
49015;SDS011;34830;44.064;12.566;2022-10-19T06:35:39;18.30;;;12.63;;
49015;SDS011;34830;44.064;12.566;2022-10-19T06:38:08;15.65;;;11.55;;
49015;SDS011;34830;44.064;12.566;2022-10-19T06:40:38;18.63;;;12.52;;
49015;SDS011;34830;44.064;12.566;2022-10-19T06:43:04;19.15;;;12.85;;
49015;SDS011;34830;44.064;12.566;2022-10-19T06:45:30;22.42;;;13.05;;
49015;SDS011;34830;44.064;12.566;2022-10-19T06:47:58;19.42;;;13.32;;
49015;SDS011;34830;44.064;12.566;2022-10-19T06:50:24;20.17;;;14.20;;
49015;SDS011;34830;44.064;12.566;2022-10-19T06:52:52;22.58;;;13.70;;
49015;SDS011;34830;44.064;12.566;2022-10-19T06:55:18;18.30;;;12.98;;
49015;SDS011;34830;44.064;12.566;2022-10-19T06:57:47;23.25;;;12.27;;
49015;SDS011;34830;44.064;12.566;2022-10-19T07:00:13;16.80;;;12.18;;
49015;SDS011;34830;44.064;12.566;2022-10-19T07:02:40;19.02;;;11.50;;
49015;SDS011;34830;44.064;12.566;2022-10-19T07:05:06;19.10;;;11.18;;
49015;SDS011;34830;44.064;12.566;2022-10-19T07:07:33;19.50;;;12.55;;
49015;SDS011;34830;44.064;12.566;2022-10-19T07:09:59;18.73;;;12.18;;
49015;SDS011;34830;44.064;12.566;2022-10-19T07:12:25;19.02;;;12.15;;
49015;SDS011;34830;44.064;12.566;2022-10-19T07:14:51;19.05;;;12.90;;
49015;SDS011;34830;44.064;12.566;2022-10-19T07:17:19;20.10;;;12.40;;
49015;SDS011;34830;44.064;12.566;2022-10-19T07:19:45;21.13;;;13.57;;
49015;SDS011;34830;44.064;12.566;2022-10-19T07:22:11;23.80;;;14.20;;
49015;SDS011;34830;44.064;12.566;2022-10-19T07:24:40;19.88;;;13.00;;
49015;SDS011;34830;44.064;12.566;2022-10-19T07:27:06;19.30;;;12.85;;
49015;SDS011;34830;44.064;12.566;2022-10-19T07:29:32;22.65;;;12.40;;
49015;SDS011;34830;44.064;12.566;2022-10-19T07:31:58;26.73;;;14.18;;
49015;SDS011;34830;44.064;12.566;2022-10-19T07:34:24;16.65;;;12.77;;
49015;SDS011;34830;44.064;12.566;2022-10-19T07:36:50;20.55;;;13.82;;
49015;SDS011;34830;44.064;12.566;2022-10-19T07:39:17;21.80;;;13.25;;
49015;SDS011;34830;44.064;12.566;2022-10-19T07:41:43;24.25;;;14.38;;
49015;SDS011;34830;44.064;12.566;2022-10-19T07:44:10;21.98;;;13.60;;
49015;SDS011;34830;44.064;12.566;2022-10-19T07:46:36;24.75;;;14.55;;
49015;SDS011;34830;44.064;12.566;2022-10-19T07:49:05;24.00;;;13.45;;
49015;SDS011;34830;44.064;12.566;2022-10-19T07:51:34;23.45;;;15.93;;
49015;SDS011;34830;44.064;12.566;2022-10-19T07:54:01;27.50;;;14.45;;
49015;SDS011;34830;44.064;12.566;2022-10-19T07:56:27;29.30;;;16.00;;
49015;SDS011;34830;44.064;12.566;2022-10-19T07:58:54;28.52;;;17.55;;
49015;SDS011;34830;44.064;12.566;2022-10-19T08:01:22;29.45;;;17.20;;
49015;SDS011;34830;44.064;12.566;2022-10-19T08:03:53;26.13;;;16.40;;
49015;SDS011;34830;44.064;12.566;2022-10-19T08:06:21;28.48;;;18.63;;
49015;SDS011;34830;44.064;12.566;2022-10-19T08:08:47;31.75;;;18.77;;
49015;SDS011;34830;44.064;12.566;2022-10-19T08:13:53;34.78;;;21.90;;
49015;SDS011;34830;44.064;12.566;2022-10-19T08:16:40;38.33;;;23.88;;
49015;SDS011;34830;44.064;12.566;2022-10-19T08:19:07;34.45;;;22.75;;
49015;SDS011;34830;44.064;12.566;2022-10-19T08:21:41;42.58;;;26.08;;
49015;SDS011;34830;44.064;12.566;2022-10-19T08:24:09;43.75;;;26.55;;
49015;SDS011;34830;44.064;12.566;2022-10-19T08:26:36;44.88;;;26.90;;
49015;SDS011;34830;44.064;12.566;2022-10-19T08:29:08;43.15;;;26.42;;
49015;SDS011;34830;44.064;12.566;2022-10-19T08:31:36;46.50;;;28.65;;
49015;SDS011;34830;44.064;12.566;2022-10-19T08:34:02;45.42;;;28.13;;
49015;SDS011;34830;44.064;12.566;2022-10-19T08:36:29;48.33;;;29.95;;
49015;SDS011;34830;44.064;12.566;2022-10-19T08:38:57;46.13;;;28.67;;
49015;SDS011;34830;44.064;12.566;2022-10-19T08:41:28;48.05;;;28.20;;
49015;SDS011;34830;44.064;12.566;2022-10-19T08:46:38;45.47;;;30.23;;
49015;SDS011;34830;44.064;12.566;2022-10-19T08:49:11;49.35;;;29.88;;
49015;SDS011;34830;44.064;12.566;2022-10-19T08:54:10;53.55;;;29.05;;
49015;SDS011;34830;44.064;12.566;2022-10-19T08:56:46;47.58;;;28.50;;
49015;SDS011;34830;44.064;12.566;2022-10-19T08:59:20;40.47;;;27.05;;
49015;SDS011;34830;44.064;12.566;2022-10-19T09:01:51;46.83;;;28.42;;
49015;SDS011;34830;44.064;12.566;2022-10-19T09:04:39;45.50;;;28.75;;
49015;SDS011;34830;44.064;12.566;2022-10-19T09:07:14;39.50;;;25.98;;
49015;SDS011;34830;44.064;12.566;2022-10-19T09:09:51;41.90;;;26.50;;
49015;SDS011;34830;44.064;12.566;2022-10-19T09:12:41;39.15;;;24.90;;
49015;SDS011;34830;44.064;12.566;2022-10-19T09:15:28;47.38;;;26.90;;
49015;SDS011;34830;44.064;12.566;2022-10-19T09:18:00;39.30;;;24.55;;
49015;SDS011;34830;44.064;12.566;2022-10-19T09:20:37;50.20;;;27.40;;
49015;SDS011;34830;44.064;12.566;2022-10-19T09:25:54;35.13;;;22.80;;
49015;SDS011;34830;44.064;12.566;2022-10-19T09:31:02;36.83;;;24.65;;
49015;SDS011;34830;44.064;12.566;2022-10-19T09:33:31;45.67;;;34.95;;
49015;SDS011;34830;44.064;12.566;2022-10-19T09:36:01;52.75;;;27.58;;
49015;SDS011;34830;44.064;12.566;2022-10-19T09:38:28;42.17;;;26.30;;
49015;SDS011;34830;44.064;12.566;2022-10-19T09:40:56;42.72;;;25.10;;
49015;SDS011;34830;44.064;12.566;2022-10-19T09:43:24;44.05;;;23.02;;
49015;SDS011;34830;44.064;12.566;2022-10-19T09:48:27;34.92;;;23.42;;
49015;SDS011;34830;44.064;12.566;2022-10-19T09:50:57;32.20;;;21.58;;
49015;SDS011;34830;44.064;12.566;2022-10-19T09:53:26;32.63;;;23.05;;
49015;SDS011;34830;44.064;12.566;2022-10-19T09:55:57;36.72;;;22.95;;
49015;SDS011;34830;44.064;12.566;2022-10-19T09:58:33;34.58;;;22.77;;
49015;SDS011;34830;44.064;12.566;2022-10-19T10:01:00;35.55;;;22.13;;
49015;SDS011;34830;44.064;12.566;2022-10-19T10:06:02;30.48;;;21.70;;
49015;SDS011;34830;44.064;12.566;2022-10-19T10:08:30;42.28;;;24.45;;
49015;SDS011;34830;44.064;12.566;2022-10-19T10:11:09;33.15;;;21.25;;
49015;SDS011;34830;44.064;12.566;2022-10-19T10:13:38;34.58;;;22.05;;
49015;SDS011;34830;44.064;12.566;2022-10-19T10:16:07;35.25;;;22.60;;
49015;SDS011;34830;44.064;12.566;2022-10-19T10:18:35;37.90;;;21.83;;
49015;SDS011;34830;44.064;12.566;2022-10-19T10:21:11;38.10;;;21.50;;
49015;SDS011;34830;44.064;12.566;2022-10-19T10:24:04;30.83;;;20.92;;
49015;SDS011;34830;44.064;12.566;2022-10-19T10:26:31;33.50;;;21.80;;
49015;SDS011;34830;44.064;12.566;2022-10-19T10:29:52;32.38;;;21.73;;
49015;SDS011;34830;44.064;12.566;2022-10-19T10:32:04;33.17;;;21.98;;
49015;SDS011;34830;44.064;12.566;2022-10-19T10:37:23;29.83;;;21.60;;
49015;SDS011;34830;44.064;12.566;2022-10-19T10:39:51;33.65;;;23.60;;
49015;SDS011;34830;44.064;12.566;2022-10-19T10:42:21;31.70;;;22.60;;
49015;SDS011;34830;44.064;12.566;2022-10-19T10:44:55;37.08;;;23.58;;
49015;SDS011;34830;44.064;12.566;2022-10-19T10:47:22;35.17;;;24.13;;
49015;SDS011;34830;44.064;12.566;2022-10-19T10:49:56;36.20;;;25.20;;
49015;SDS011;34830;44.064;12.566;2022-10-19T10:52:24;38.50;;;24.23;;
49015;SDS011;34830;44.064;12.566;2022-10-19T10:57:24;40.92;;;24.42;;
49015;SDS011;34830;44.064;12.566;2022-10-19T11:00:04;39.20;;;24.70;;
49015;SDS011;34830;44.064;12.566;2022-10-19T11:05:09;38.08;;;26.23;;
49015;SDS011;34830;44.064;12.566;2022-10-19T11:07:42;34.10;;;24.02;;
49015;SDS011;34830;44.064;12.566;2022-10-19T11:10:12;41.13;;;26.02;;
49015;SDS011;34830;44.064;12.566;2022-10-19T11:12:48;37.22;;;23.88;;
49015;SDS011;34830;44.064;12.566;2022-10-19T11:15:29;38.88;;;24.88;;
49015;SDS011;34830;44.064;12.566;2022-10-19T11:20:31;38.15;;;23.60;;
49015;SDS011;34830;44.064;12.566;2022-10-19T11:25:45;36.97;;;24.25;;
49015;SDS011;34830;44.064;12.566;2022-10-19T11:29:05;31.40;;;22.48;;
49015;SDS011;34830;44.064;12.566;2022-10-19T11:34:06;38.88;;;25.50;;
49015;SDS011;34830;44.064;12.566;2022-10-19T11:39:34;38.25;;;25.05;;
49015;SDS011;34830;44.064;12.566;2022-10-19T11:42:29;38.67;;;25.15;;
49015;SDS011;34830;44.064;12.566;2022-10-19T11:47:46;39.80;;;25.63;;
49015;SDS011;34830;44.064;12.566;2022-10-19T12:01:11;37.83;;;24.70;;
49015;SDS011;34830;44.064;12.566;2022-10-19T12:11:57;43.45;;;27.20;;
49015;SDS011;34830;44.064;12.566;2022-10-19T12:14:31;38.42;;;25.13;;
49015;SDS011;34830;44.064;12.566;2022-10-19T12:17:06;40.00;;;28.08;;
49015;SDS011;34830;44.064;12.566;2022-10-19T12:19:38;43.17;;;28.25;;
49015;SDS011;34830;44.064;12.566;2022-10-19T12:22:10;41.42;;;27.35;;
49015;SDS011;34830;44.064;12.566;2022-10-19T12:24:40;45.05;;;28.83;;
49015;SDS011;34830;44.064;12.566;2022-10-19T12:27:09;38.50;;;27.65;;
49015;SDS011;34830;44.064;12.566;2022-10-19T12:29:38;46.42;;;27.00;;
49015;SDS011;34830;44.064;12.566;2022-10-19T12:32:06;42.97;;;28.48;;
49015;SDS011;34830;44.064;12.566;2022-10-19T12:42:28;46.28;;;30.67;;
49015;SDS011;34830;44.064;12.566;2022-10-19T12:56:07;48.25;;;31.70;;
49015;SDS011;34830;44.064;12.566;2022-10-19T13:01:07;48.22;;;32.30;;
49015;SDS011;34830;44.064;12.566;2022-10-19T13:03:41;53.90;;;34.40;;
49015;SDS011;34830;44.064;12.566;2022-10-19T13:06:14;49.83;;;32.30;;
49015;SDS011;34830;44.064;12.566;2022-10-19T13:11:18;53.42;;;32.78;;
49015;SDS011;34830;44.064;12.566;2022-10-19T13:19:04;52.78;;;36.30;;
49015;SDS011;34830;44.064;12.566;2022-10-19T13:40:39;58.85;;;36.00;;
49015;SDS011;34830;44.064;12.566;2022-10-19T13:43:21;51.40;;;36.38;;
49015;SDS011;34830;44.064;12.566;2022-10-19T13:45:53;54.78;;;37.22;;
49015;SDS011;34830;44.064;12.566;2022-10-19T14:05:52;64.85;;;40.40;;
49015;SDS011;34830;44.064;12.566;2022-10-19T14:10:58;69.38;;;41.10;;
49015;SDS011;34830;44.064;12.566;2022-10-19T14:13:26;57.20;;;38.65;;
49015;SDS011;34830;44.064;12.566;2022-10-19T14:15:54;63.65;;;39.42;;
49015;SDS011;34830;44.064;12.566;2022-10-19T14:21:04;61.50;;;40.53;;
49015;SDS011;34830;44.064;12.566;2022-10-19T14:23:32;58.28;;;38.00;;
49015;SDS011;34830;44.064;12.566;2022-10-19T14:26:01;60.60;;;38.92;;
49015;SDS011;34830;44.064;12.566;2022-10-19T14:28:28;59.58;;;38.58;;
49015;SDS011;34830;44.064;12.566;2022-10-19T14:30:56;54.50;;;36.88;;
49015;SDS011;34830;44.064;12.566;2022-10-19T14:33:23;54.05;;;34.33;;
49015;SDS011;34830;44.064;12.566;2022-10-19T14:35:50;52.25;;;34.15;;
49015;SDS011;34830;44.064;12.566;2022-10-19T14:38:18;52.35;;;36.22;;
49015;SDS011;34830;44.064;12.566;2022-10-19T14:40:46;57.42;;;35.15;;
49015;SDS011;34830;44.064;12.566;2022-10-19T14:43:23;47.38;;;33.10;;
49015;SDS011;34830;44.064;12.566;2022-10-19T14:48:37;51.63;;;34.65;;
49015;SDS011;34830;44.064;12.566;2022-10-19T14:51:13;54.40;;;37.05;;
49015;SDS011;34830;44.064;12.566;2022-10-19T14:53:50;60.47;;;38.17;;
49015;SDS011;34830;44.064;12.566;2022-10-19T14:56:36;54.05;;;37.42;;
49015;SDS011;34830;44.064;12.566;2022-10-19T15:01:39;53.63;;;36.88;;
49015;SDS011;34830;44.064;12.566;2022-10-19T15:04:19;57.03;;;37.90;;
49015;SDS011;34830;44.064;12.566;2022-10-19T15:06:47;66.75;;;38.50;;
49015;SDS011;34830;44.064;12.566;2022-10-19T15:09:18;56.33;;;38.50;;
49015;SDS011;34830;44.064;12.566;2022-10-19T15:11:50;63.05;;;40.45;;
49015;SDS011;34830;44.064;12.566;2022-10-19T15:14:19;70.45;;;40.95;;
49015;SDS011;34830;44.064;12.566;2022-10-19T15:24:34;64.60;;;39.80;;
49015;SDS011;34830;44.064;12.566;2022-10-19T15:27:08;69.85;;;43.63;;
49015;SDS011;34830;44.064;12.566;2022-10-19T15:29:54;68.85;;;43.80;;
49015;SDS011;34830;44.064;12.566;2022-10-19T15:32:25;74.50;;;43.80;;
49015;SDS011;34830;44.064;12.566;2022-10-19T15:34:57;73.55;;;45.47;;
49015;SDS011;34830;44.064;12.566;2022-10-19T15:37:23;73.22;;;44.42;;
49015;SDS011;34830;44.064;12.566;2022-10-19T15:39:50;82.38;;;50.10;;
49015;SDS011;34830;44.064;12.566;2022-10-19T15:42:20;80.20;;;47.42;;
49015;SDS011;34830;44.064;12.566;2022-10-19T15:44:47;80.40;;;48.80;;
49015;SDS011;34830;44.064;12.566;2022-10-19T15:52:18;78.10;;;49.05;;
49015;SDS011;34830;44.064;12.566;2022-10-19T15:54:56;84.00;;;52.83;;
49015;SDS011;34830;44.064;12.566;2022-10-19T15:57:24;85.53;;;51.85;;
49015;SDS011;34830;44.064;12.566;2022-10-19T15:59:53;84.18;;;51.55;;
49015;SDS011;34830;44.064;12.566;2022-10-19T16:02:20;81.88;;;50.10;;
49015;SDS011;34830;44.064;12.566;2022-10-19T16:04:46;85.40;;;50.88;;
49015;SDS011;34830;44.064;12.566;2022-10-19T16:07:18;89.22;;;54.03;;
49015;SDS011;34830;44.064;12.566;2022-10-19T16:09:52;83.88;;;51.97;;
49015;SDS011;34830;44.064;12.566;2022-10-19T16:12:19;90.55;;;53.72;;
49015;SDS011;34830;44.064;12.566;2022-10-19T16:14:46;88.45;;;53.17;;
49015;SDS011;34830;44.064;12.566;2022-10-19T16:17:12;88.25;;;51.88;;
49015;SDS011;34830;44.064;12.566;2022-10-19T16:19:38;92.72;;;56.45;;
49015;SDS011;34830;44.064;12.566;2022-10-19T16:22:04;90.45;;;55.85;;
49015;SDS011;34830;44.064;12.566;2022-10-19T16:24:30;85.32;;;54.58;;
49015;SDS011;34830;44.064;12.566;2022-10-19T16:26:57;96.43;;;56.90;;
49015;SDS011;34830;44.064;12.566;2022-10-19T16:29:23;97.22;;;57.50;;
49015;SDS011;34830;44.064;12.566;2022-10-19T16:31:49;105.55;;;60.38;;
49015;SDS011;34830;44.064;12.566;2022-10-19T16:34:16;94.63;;;55.80;;
49015;SDS011;34830;44.064;12.566;2022-10-19T16:36:42;97.97;;;56.13;;
49015;SDS011;34830;44.064;12.566;2022-10-19T16:39:08;90.93;;;54.80;;
49015;SDS011;34830;44.064;12.566;2022-10-19T16:41:34;91.53;;;54.65;;
49015;SDS011;34830;44.064;12.566;2022-10-19T16:44:00;98.20;;;59.13;;
49015;SDS011;34830;44.064;12.566;2022-10-19T16:46:26;97.22;;;57.00;;
49015;SDS011;34830;44.064;12.566;2022-10-19T16:48:52;94.28;;;58.28;;
49015;SDS011;34830;44.064;12.566;2022-10-19T16:51:21;95.28;;;56.05;;
49015;SDS011;34830;44.064;12.566;2022-10-19T16:53:49;101.72;;;59.63;;
49015;SDS011;34830;44.064;12.566;2022-10-19T16:56:17;108.60;;;61.85;;
49015;SDS011;34830;44.064;12.566;2022-10-19T16:58:43;93.85;;;56.58;;
49015;SDS011;34830;44.064;12.566;2022-10-19T17:01:16;94.97;;;57.22;;
49015;SDS011;34830;44.064;12.566;2022-10-19T17:03:44;90.95;;;57.28;;
49015;SDS011;34830;44.064;12.566;2022-10-19T17:06:11;97.40;;;58.78;;
49015;SDS011;34830;44.064;12.566;2022-10-19T17:08:38;96.65;;;57.35;;
49015;SDS011;34830;44.064;12.566;2022-10-19T17:11:11;100.72;;;58.47;;
49015;SDS011;34830;44.064;12.566;2022-10-19T17:13:44;95.03;;;56.55;;
49015;SDS011;34830;44.064;12.566;2022-10-19T17:16:11;106.45;;;58.50;;
49015;SDS011;34830;44.064;12.566;2022-10-19T17:18:37;102.07;;;59.20;;
49015;SDS011;34830;44.064;12.566;2022-10-19T17:21:23;102.32;;;60.53;;
49015;SDS011;34830;44.064;12.566;2022-10-19T17:23:52;99.07;;;60.03;;